sensor_id;sensor_type;location;lat;lon;timestamp;P1;durP1;ratioP1;P2;durP2;ratioP2
40871;SDS011;26591;43.264;26.940;2023-06-10T00:00:26;5.38;;;3.42;;
40871;SDS011;26591;43.264;26.940;2023-06-10T00:02:52;8.00;;;3.50;;
40871;SDS011;26591;43.264;26.940;2023-06-10T00:05:18;6.78;;;3.72;;
40871;SDS011;26591;43.264;26.940;2023-06-10T00:10:36;13.77;;;3.25;;
40871;SDS011;26591;43.264;26.940;2023-06-10T00:13:06;15.32;;;3.50;;
40871;SDS011;26591;43.264;26.940;2023-06-10T00:15:36;9.93;;;3.60;;
40871;SDS011;26591;43.264;26.940;2023-06-10T00:18:01;6.57;;;3.30;;
40871;SDS011;26591;43.264;26.940;2023-06-10T00:20:28;11.57;;;3.40;;
40871;SDS011;26591;43.264;26.940;2023-06-10T00:22:55;13.40;;;3.17;;
40871;SDS011;26591;43.264;26.940;2023-06-10T00:25:22;4.72;;;3.03;;
40871;SDS011;26591;43.264;26.940;2023-06-10T00:27:48;7.72;;;3.17;;
40871;SDS011;26591;43.264;26.940;2023-06-10T00:30:13;8.15;;;4.18;;
40871;SDS011;26591;43.264;26.940;2023-06-10T00:32:39;14.00;;;3.88;;
40871;SDS011;26591;43.264;26.940;2023-06-10T00:35:05;7.07;;;3.65;;
40871;SDS011;26591;43.264;26.940;2023-06-10T00:37:32;10.52;;;3.63;;
40871;SDS011;26591;43.264;26.940;2023-06-10T00:40:00;6.10;;;3.55;;
40871;SDS011;26591;43.264;26.940;2023-06-10T00:45:21;10.13;;;3.90;;
40871;SDS011;26591;43.264;26.940;2023-06-10T00:47:46;6.32;;;3.90;;
40871;SDS011;26591;43.264;26.940;2023-06-10T00:50:12;10.38;;;4.63;;
40871;SDS011;26591;43.264;26.940;2023-06-10T00:52:37;8.93;;;4.00;;
40871;SDS011;26591;43.264;26.940;2023-06-10T00:55:03;8.13;;;4.18;;
40871;SDS011;26591;43.264;26.940;2023-06-10T00:57:29;12.57;;;3.85;;
40871;SDS011;26591;43.264;26.940;2023-06-10T00:59:54;9.85;;;4.70;;
40871;SDS011;26591;43.264;26.940;2023-06-10T01:02:20;10.02;;;4.25;;
40871;SDS011;26591;43.264;26.940;2023-06-10T01:04:46;11.60;;;3.78;;
40871;SDS011;26591;43.264;26.940;2023-06-10T01:09:55;7.95;;;3.80;;
40871;SDS011;26591;43.264;26.940;2023-06-10T01:12:38;8.68;;;4.13;;
40871;SDS011;26591;43.264;26.940;2023-06-10T01:15:05;8.68;;;3.72;;
40871;SDS011;26591;43.264;26.940;2023-06-10T01:17:31;6.30;;;3.65;;
40871;SDS011;26591;43.264;26.940;2023-06-10T01:19:57;9.98;;;4.07;;
40871;SDS011;26591;43.264;26.940;2023-06-10T01:22:27;7.32;;;4.00;;
40871;SDS011;26591;43.264;26.940;2023-06-10T01:24:57;8.40;;;3.63;;
40871;SDS011;26591;43.264;26.940;2023-06-10T01:27:26;8.38;;;3.85;;
40871;SDS011;26591;43.264;26.940;2023-06-10T01:30:08;14.88;;;4.65;;
40871;SDS011;26591;43.264;26.940;2023-06-10T01:32:44;6.30;;;3.88;;
40871;SDS011;26591;43.264;26.940;2023-06-10T01:35:12;7.27;;;3.80;;
40871;SDS011;26591;43.264;26.940;2023-06-10T01:37:38;8.80;;;3.90;;
40871;SDS011;26591;43.264;26.940;2023-06-10T01:40:07;9.80;;;4.10;;
40871;SDS011;26591;43.264;26.940;2023-06-10T01:42:34;7.70;;;3.78;;
40871;SDS011;26591;43.264;26.940;2023-06-10T01:45:00;6.05;;;3.92;;
40871;SDS011;26591;43.264;26.940;2023-06-10T01:47:25;7.93;;;4.07;;
40871;SDS011;26591;43.264;26.940;2023-06-10T01:49:51;8.07;;;3.97;;
40871;SDS011;26591;43.264;26.940;2023-06-10T01:52:16;9.85;;;3.83;;
40871;SDS011;26591;43.264;26.940;2023-06-10T01:54:43;10.05;;;4.43;;
40871;SDS011;26591;43.264;26.940;2023-06-10T01:57:08;13.80;;;4.03;;
40871;SDS011;26591;43.264;26.940;2023-06-10T01:59:34;7.47;;;3.88;;
40871;SDS011;26591;43.264;26.940;2023-06-10T02:01:59;8.45;;;4.13;;
40871;SDS011;26591;43.264;26.940;2023-06-10T02:04:25;10.13;;;3.95;;
40871;SDS011;26591;43.264;26.940;2023-06-10T02:06:50;11.70;;;4.85;;
40871;SDS011;26591;43.264;26.940;2023-06-10T02:09:16;11.93;;;4.43;;
40871;SDS011;26591;43.264;26.940;2023-06-10T02:11:43;11.13;;;4.00;;
40871;SDS011;26591;43.264;26.940;2023-06-10T02:14:12;6.60;;;3.80;;
40871;SDS011;26591;43.264;26.940;2023-06-10T02:16:38;9.95;;;4.45;;
40871;SDS011;26591;43.264;26.940;2023-06-10T02:19:04;10.70;;;4.60;;
40871;SDS011;26591;43.264;26.940;2023-06-10T02:21:31;12.75;;;4.75;;
40871;SDS011;26591;43.264;26.940;2023-06-10T02:23:57;11.25;;;4.22;;
40871;SDS011;26591;43.264;26.940;2023-06-10T02:26:22;14.50;;;4.18;;
40871;SDS011;26591;43.264;26.940;2023-06-10T02:28:50;9.30;;;4.72;;
40871;SDS011;26591;43.264;26.940;2023-06-10T02:34:31;10.32;;;4.60;;
40871;SDS011;26591;43.264;26.940;2023-06-10T02:36:57;16.90;;;4.13;;
40871;SDS011;26591;43.264;26.940;2023-06-10T02:39:22;19.50;;;4.43;;
40871;SDS011;26591;43.264;26.940;2023-06-10T02:41:48;14.35;;;4.65;;
40871;SDS011;26591;43.264;26.940;2023-06-10T02:44:13;23.33;;;5.80;;
40871;SDS011;26591;43.264;26.940;2023-06-10T02:46:38;23.02;;;5.78;;
40871;SDS011;26591;43.264;26.940;2023-06-10T02:49:04;22.50;;;5.57;;
40871;SDS011;26591;43.264;26.940;2023-06-10T02:51:29;16.67;;;5.10;;
40871;SDS011;26591;43.264;26.940;2023-06-10T02:53:55;21.52;;;4.85;;
40871;SDS011;26591;43.264;26.940;2023-06-10T02:56:21;19.67;;;4.50;;
40871;SDS011;26591;43.264;26.940;2023-06-10T02:58:47;14.25;;;5.05;;
40871;SDS011;26591;43.264;26.940;2023-06-10T03:01:13;18.00;;;4.45;;
40871;SDS011;26591;43.264;26.940;2023-06-10T03:03:39;21.95;;;5.18;;
40871;SDS011;26591;43.264;26.940;2023-06-10T03:06:07;10.43;;;4.20;;
40871;SDS011;26591;43.264;26.940;2023-06-10T03:08:35;9.93;;;4.75;;
40871;SDS011;26591;43.264;26.940;2023-06-10T03:11:01;17.27;;;4.72;;
40871;SDS011;26591;43.264;26.940;2023-06-10T03:13:27;24.02;;;4.97;;
40871;SDS011;26591;43.264;26.940;2023-06-10T03:15:52;16.10;;;4.30;;
40871;SDS011;26591;43.264;26.940;2023-06-10T03:18:30;15.15;;;4.38;;
40871;SDS011;26591;43.264;26.940;2023-06-10T03:20:56;14.48;;;4.65;;
40871;SDS011;26591;43.264;26.940;2023-06-10T03:23:22;22.83;;;6.00;;
40871;SDS011;26591;43.264;26.940;2023-06-10T03:25:48;14.88;;;4.97;;
40871;SDS011;26591;43.264;26.940;2023-06-10T03:28:13;13.93;;;4.82;;
40871;SDS011;26591;43.264;26.940;2023-06-10T03:30:39;11.15;;;4.45;;
40871;SDS011;26591;43.264;26.940;2023-06-10T03:33:05;8.48;;;4.00;;
40871;SDS011;26591;43.264;26.940;2023-06-10T03:35:30;10.93;;;4.00;;
40871;SDS011;26591;43.264;26.940;2023-06-10T03:37:57;17.90;;;5.13;;
40871;SDS011;26591;43.264;26.940;2023-06-10T03:40:23;26.25;;;6.05;;
40871;SDS011;26591;43.264;26.940;2023-06-10T03:42:48;18.70;;;4.68;;
40871;SDS011;26591;43.264;26.940;2023-06-10T03:45:14;39.13;;;5.40;;
40871;SDS011;26591;43.264;26.940;2023-06-10T03:47:39;19.00;;;5.20;;
40871;SDS011;26591;43.264;26.940;2023-06-10T03:50:06;14.35;;;5.15;;
40871;SDS011;26591;43.264;26.940;2023-06-10T03:52:33;13.10;;;4.30;;
40871;SDS011;26591;43.264;26.940;2023-06-10T03:54:59;16.15;;;4.82;;
40871;SDS011;26591;43.264;26.940;2023-06-10T03:57:24;14.00;;;4.22;;
40871;SDS011;26591;43.264;26.940;2023-06-10T03:59:52;14.55;;;3.95;;
40871;SDS011;26591;43.264;26.940;2023-06-10T04:02:18;17.75;;;4.47;;
40871;SDS011;26591;43.264;26.940;2023-06-10T04:04:44;13.90;;;4.10;;
40871;SDS011;26591;43.264;26.940;2023-06-10T04:07:09;12.68;;;3.80;;
40871;SDS011;26591;43.264;26.940;2023-06-10T04:09:38;9.45;;;4.55;;
40871;SDS011;26591;43.264;26.940;2023-06-10T04:12:04;19.33;;;4.10;;
40871;SDS011;26591;43.264;26.940;2023-06-10T04:14:33;6.38;;;3.67;;
40871;SDS011;26591;43.264;26.940;2023-06-10T04:17:01;5.15;;;3.55;;
40871;SDS011;26591;43.264;26.940;2023-06-10T04:19:26;10.15;;;3.85;;
40871;SDS011;26591;43.264;26.940;2023-06-10T04:21:53;8.00;;;3.90;;
40871;SDS011;26591;43.264;26.940;2023-06-10T04:24:19;9.15;;;4.18;;
40871;SDS011;26591;43.264;26.940;2023-06-10T04:26:44;14.43;;;4.00;;
40871;SDS011;26591;43.264;26.940;2023-06-10T04:29:10;10.15;;;4.10;;
40871;SDS011;26591;43.264;26.940;2023-06-10T04:31:35;7.93;;;3.75;;
40871;SDS011;26591;43.264;26.940;2023-06-10T04:34:01;11.77;;;4.15;;
40871;SDS011;26591;43.264;26.940;2023-06-10T04:36:26;19.45;;;4.43;;
40871;SDS011;26591;43.264;26.940;2023-06-10T04:38:54;14.55;;;4.85;;
40871;SDS011;26591;43.264;26.940;2023-06-10T04:41:19;18.55;;;5.47;;
40871;SDS011;26591;43.264;26.940;2023-06-10T04:43:45;12.13;;;4.35;;
40871;SDS011;26591;43.264;26.940;2023-06-10T04:46:11;15.32;;;4.60;;
40871;SDS011;26591;43.264;26.940;2023-06-10T04:48:38;13.52;;;4.88;;
40871;SDS011;26591;43.264;26.940;2023-06-10T04:51:03;14.70;;;4.63;;
40871;SDS011;26591;43.264;26.940;2023-06-10T04:53:30;15.50;;;4.28;;
40871;SDS011;26591;43.264;26.940;2023-06-10T04:55:56;15.73;;;4.95;;
40871;SDS011;26591;43.264;26.940;2023-06-10T04:58:25;14.05;;;5.32;;
40871;SDS011;26591;43.264;26.940;2023-06-10T05:00:50;13.82;;;4.43;;
40871;SDS011;26591;43.264;26.940;2023-06-10T05:03:16;17.63;;;4.90;;
40871;SDS011;26591;43.264;26.940;2023-06-10T05:05:41;12.90;;;4.15;;
40871;SDS011;26591;43.264;26.940;2023-06-10T05:08:09;12.35;;;5.38;;
40871;SDS011;26591;43.264;26.940;2023-06-10T05:10:34;19.85;;;5.03;;
40871;SDS011;26591;43.264;26.940;2023-06-10T05:13:00;24.90;;;4.93;;
40871;SDS011;26591;43.264;26.940;2023-06-10T05:15:25;11.02;;;4.75;;
40871;SDS011;26591;43.264;26.940;2023-06-10T05:17:51;12.65;;;5.50;;
40871;SDS011;26591;43.264;26.940;2023-06-10T05:20:17;14.38;;;4.72;;
40871;SDS011;26591;43.264;26.940;2023-06-10T05:22:43;15.07;;;5.82;;
40871;SDS011;26591;43.264;26.940;2023-06-10T05:25:09;16.95;;;5.05;;
40871;SDS011;26591;43.264;26.940;2023-06-10T05:27:35;9.43;;;4.35;;
40871;SDS011;26591;43.264;26.940;2023-06-10T05:30:02;22.98;;;5.63;;
40871;SDS011;26591;43.264;26.940;2023-06-10T05:32:28;14.75;;;4.60;;
40871;SDS011;26591;43.264;26.940;2023-06-10T05:34:54;16.33;;;4.75;;
40871;SDS011;26591;43.264;26.940;2023-06-10T05:37:19;19.27;;;4.70;;
40871;SDS011;26591;43.264;26.940;2023-06-10T05:39:45;17.15;;;4.47;;
40871;SDS011;26591;43.264;26.940;2023-06-10T05:42:10;22.25;;;4.90;;
40871;SDS011;26591;43.264;26.940;2023-06-10T05:44:36;19.15;;;4.60;;
40871;SDS011;26591;43.264;26.940;2023-06-10T05:47:02;12.23;;;3.85;;
40871;SDS011;26591;43.264;26.940;2023-06-10T05:49:27;17.40;;;4.95;;
40871;SDS011;26591;43.264;26.940;2023-06-10T05:51:53;22.25;;;7.88;;
40871;SDS011;26591;43.264;26.940;2023-06-10T05:54:19;27.20;;;13.13;;
40871;SDS011;26591;43.264;26.940;2023-06-10T05:56:44;65.75;;;31.25;;
40871;SDS011;26591;43.264;26.940;2023-06-10T05:59:10;56.38;;;25.08;;
40871;SDS011;26591;43.264;26.940;2023-06-10T06:01:36;43.92;;;16.02;;
40871;SDS011;26591;43.264;26.940;2023-06-10T06:04:02;34.20;;;12.52;;
40871;SDS011;26591;43.264;26.940;2023-06-10T06:06:28;47.88;;;9.88;;
40871;SDS011;26591;43.264;26.940;2023-06-10T06:08:53;21.30;;;7.28;;
40871;SDS011;26591;43.264;26.940;2023-06-10T06:11:19;18.45;;;6.70;;
40871;SDS011;26591;43.264;26.940;2023-06-10T06:13:44;18.17;;;6.13;;
40871;SDS011;26591;43.264;26.940;2023-06-10T06:16:10;14.82;;;5.25;;
40871;SDS011;26591;43.264;26.940;2023-06-10T06:18:35;24.65;;;5.30;;
40871;SDS011;26591;43.264;26.940;2023-06-10T06:21:01;28.77;;;6.45;;
40871;SDS011;26591;43.264;26.940;2023-06-10T06:23:26;15.95;;;4.07;;
40871;SDS011;26591;43.264;26.940;2023-06-10T06:25:52;14.70;;;4.45;;
40871;SDS011;26591;43.264;26.940;2023-06-10T06:28:17;17.15;;;4.20;;
40871;SDS011;26591;43.264;26.940;2023-06-10T06:30:44;18.00;;;4.65;;
40871;SDS011;26591;43.264;26.940;2023-06-10T06:33:10;16.75;;;4.65;;
40871;SDS011;26591;43.264;26.940;2023-06-10T06:35:35;17.00;;;4.22;;
40871;SDS011;26591;43.264;26.940;2023-06-10T06:38:03;20.40;;;3.88;;
40871;SDS011;26591;43.264;26.940;2023-06-10T06:40:29;11.70;;;4.05;;
40871;SDS011;26591;43.264;26.940;2023-06-10T06:42:55;14.55;;;3.83;;
40871;SDS011;26591;43.264;26.940;2023-06-10T06:45:22;15.48;;;4.70;;
40871;SDS011;26591;43.264;26.940;2023-06-10T06:47:47;23.13;;;4.57;;
40871;SDS011;26591;43.264;26.940;2023-06-10T06:50:13;5.78;;;3.13;;
40871;SDS011;26591;43.264;26.940;2023-06-10T06:52:38;6.53;;;3.20;;
40871;SDS011;26591;43.264;26.940;2023-06-10T06:55:04;5.80;;;2.90;;
40871;SDS011;26591;43.264;26.940;2023-06-10T06:57:30;6.53;;;2.90;;
40871;SDS011;26591;43.264;26.940;2023-06-10T06:59:55;4.50;;;2.47;;
40871;SDS011;26591;43.264;26.940;2023-06-10T07:02:21;9.70;;;2.95;;
40871;SDS011;26591;43.264;26.940;2023-06-10T07:04:46;12.57;;;4.00;;
40871;SDS011;26591;43.264;26.940;2023-06-10T07:07:14;6.28;;;3.30;;
40871;SDS011;26591;43.264;26.940;2023-06-10T07:09:40;10.35;;;2.90;;
40871;SDS011;26591;43.264;26.940;2023-06-10T07:12:06;7.70;;;2.45;;
40871;SDS011;26591;43.264;26.940;2023-06-10T07:14:32;6.22;;;2.83;;
40871;SDS011;26591;43.264;26.940;2023-06-10T07:16:57;8.05;;;2.70;;
40871;SDS011;26591;43.264;26.940;2023-06-10T07:19:23;11.05;;;2.40;;
40871;SDS011;26591;43.264;26.940;2023-06-10T07:21:48;7.90;;;2.40;;
40871;SDS011;26591;43.264;26.940;2023-06-10T07:24:13;4.65;;;2.15;;
40871;SDS011;26591;43.264;26.940;2023-06-10T07:26:39;5.93;;;2.00;;
40871;SDS011;26591;43.264;26.940;2023-06-10T07:29:05;11.38;;;2.70;;
40871;SDS011;26591;43.264;26.940;2023-06-10T07:31:33;7.78;;;2.47;;
40871;SDS011;26591;43.264;26.940;2023-06-10T07:33:59;10.35;;;2.90;;
40871;SDS011;26591;43.264;26.940;2023-06-10T07:36:24;7.50;;;2.40;;
40871;SDS011;26591;43.264;26.940;2023-06-10T07:38:52;9.68;;;2.30;;
40871;SDS011;26591;43.264;26.940;2023-06-10T07:41:18;4.53;;;2.20;;
40871;SDS011;26591;43.264;26.940;2023-06-10T07:43:44;9.77;;;2.20;;
40871;SDS011;26591;43.264;26.940;2023-06-10T07:46:10;8.70;;;2.33;;
40871;SDS011;26591;43.264;26.940;2023-06-10T07:48:35;7.50;;;2.33;;
40871;SDS011;26591;43.264;26.940;2023-06-10T07:51:01;5.32;;;2.22;;
40871;SDS011;26591;43.264;26.940;2023-06-10T07:53:26;5.20;;;2.38;;
40871;SDS011;26591;43.264;26.940;2023-06-10T07:55:58;10.00;;;2.60;;
40871;SDS011;26591;43.264;26.940;2023-06-10T07:58:23;11.70;;;2.70;;
40871;SDS011;26591;43.264;26.940;2023-06-10T08:00:49;5.80;;;2.15;;
40871;SDS011;26591;43.264;26.940;2023-06-10T08:03:15;7.18;;;2.50;;
40871;SDS011;26591;43.264;26.940;2023-06-10T08:05:40;5.00;;;2.60;;
40871;SDS011;26591;43.264;26.940;2023-06-10T08:08:09;6.03;;;2.78;;
40871;SDS011;26591;43.264;26.940;2023-06-10T08:10:35;9.40;;;2.30;;
40871;SDS011;26591;43.264;26.940;2023-06-10T08:13:00;5.95;;;2.25;;
40871;SDS011;26591;43.264;26.940;2023-06-10T08:15:26;7.93;;;2.88;;
40871;SDS011;26591;43.264;26.940;2023-06-10T08:17:51;8.80;;;3.00;;
40871;SDS011;26591;43.264;26.940;2023-06-10T08:20:17;3.88;;;2.35;;
40871;SDS011;26591;43.264;26.940;2023-06-10T08:22:43;7.50;;;2.50;;
40871;SDS011;26591;43.264;26.940;2023-06-10T08:25:09;7.47;;;2.60;;
40871;SDS011;26591;43.264;26.940;2023-06-10T08:27:35;5.13;;;2.47;;
40871;SDS011;26591;43.264;26.940;2023-06-10T08:30:01;4.40;;;2.13;;
40871;SDS011;26591;43.264;26.940;2023-06-10T08:32:27;5.40;;;2.53;;
40871;SDS011;26591;43.264;26.940;2023-06-10T08:34:52;5.80;;;3.10;;
40871;SDS011;26591;43.264;26.940;2023-06-10T08:37:18;14.93;;;2.88;;
40871;SDS011;26591;43.264;26.940;2023-06-10T08:39:46;8.30;;;2.85;;
40871;SDS011;26591;43.264;26.940;2023-06-10T08:44:49;10.35;;;2.70;;
40871;SDS011;26591;43.264;26.940;2023-06-10T08:47:19;6.65;;;2.50;;
40871;SDS011;26591;43.264;26.940;2023-06-10T08:49:48;7.78;;;2.58;;
40871;SDS011;26591;43.264;26.940;2023-06-10T08:52:34;17.33;;;2.80;;
40871;SDS011;26591;43.264;26.940;2023-06-10T08:55:12;7.28;;;2.80;;
40871;SDS011;26591;43.264;26.940;2023-06-10T08:57:41;6.45;;;2.55;;
40871;SDS011;26591;43.264;26.940;2023-06-10T09:00:07;5.03;;;2.63;;
40871;SDS011;26591;43.264;26.940;2023-06-10T09:02:33;6.85;;;2.55;;
40871;SDS011;26591;43.264;26.940;2023-06-10T09:05:00;8.63;;;2.28;;
40871;SDS011;26591;43.264;26.940;2023-06-10T09:07:27;7.22;;;2.72;;
40871;SDS011;26591;43.264;26.940;2023-06-10T09:09:56;6.23;;;2.43;;
40871;SDS011;26591;43.264;26.940;2023-06-10T09:12:24;8.45;;;3.00;;
40871;SDS011;26591;43.264;26.940;2023-06-10T09:14:49;8.02;;;2.40;;
40871;SDS011;26591;43.264;26.940;2023-06-10T09:17:15;5.80;;;2.38;;
40871;SDS011;26591;43.264;26.940;2023-06-10T09:19:41;15.00;;;2.60;;
40871;SDS011;26591;43.264;26.940;2023-06-10T09:22:10;6.20;;;2.50;;
40871;SDS011;26591;43.264;26.940;2023-06-10T09:24:35;6.63;;;2.50;;
40871;SDS011;26591;43.264;26.940;2023-06-10T09:27:04;10.02;;;2.58;;
40871;SDS011;26591;43.264;26.940;2023-06-10T09:32:18;6.18;;;2.40;;
40871;SDS011;26591;43.264;26.940;2023-06-10T09:34:44;5.03;;;2.72;;
40871;SDS011;26591;43.264;26.940;2023-06-10T09:37:25;8.85;;;2.80;;
40871;SDS011;26591;43.264;26.940;2023-06-10T09:40:01;4.95;;;2.65;;
40871;SDS011;26591;43.264;26.940;2023-06-10T09:42:29;6.35;;;2.60;;
40871;SDS011;26591;43.264;26.940;2023-06-10T09:44:58;3.60;;;2.00;;
40871;SDS011;26591;43.264;26.940;2023-06-10T09:47:23;6.07;;;2.63;;
40871;SDS011;26591;43.264;26.940;2023-06-10T09:49:49;10.70;;;2.50;;
40871;SDS011;26591;43.264;26.940;2023-06-10T09:52:22;7.90;;;3.15;;
40871;SDS011;26591;43.264;26.940;2023-06-10T09:54:51;6.28;;;2.20;;
40871;SDS011;26591;43.264;26.940;2023-06-10T09:57:18;9.00;;;2.97;;
40871;SDS011;26591;43.264;26.940;2023-06-10T09:59:45;7.35;;;2.70;;
40871;SDS011;26591;43.264;26.940;2023-06-10T10:02:14;9.43;;;2.92;;
40871;SDS011;26591;43.264;26.940;2023-06-10T10:04:41;4.72;;;2.53;;
40871;SDS011;26591;43.264;26.940;2023-06-10T10:07:07;12.05;;;2.53;;
40871;SDS011;26591;43.264;26.940;2023-06-10T10:09:35;7.40;;;3.10;;
40871;SDS011;26591;43.264;26.940;2023-06-10T10:12:02;4.10;;;2.42;;
40871;SDS011;26591;43.264;26.940;2023-06-10T10:14:28;7.65;;;2.92;;
40871;SDS011;26591;43.264;26.940;2023-06-10T10:19:28;9.15;;;3.25;;
40871;SDS011;26591;43.264;26.940;2023-06-10T10:22:01;9.70;;;3.10;;
40871;SDS011;26591;43.264;26.940;2023-06-10T10:24:33;6.65;;;3.05;;
40871;SDS011;26591;43.264;26.940;2023-06-10T10:27:05;16.08;;;3.10;;
40871;SDS011;26591;43.264;26.940;2023-06-10T10:29:42;12.10;;;3.70;;
40871;SDS011;26591;43.264;26.940;2023-06-10T10:32:12;6.57;;;2.90;;
40871;SDS011;26591;43.264;26.940;2023-06-10T10:37:22;6.72;;;2.58;;
40871;SDS011;26591;43.264;26.940;2023-06-10T10:39:48;8.95;;;2.72;;
40871;SDS011;26591;43.264;26.940;2023-06-10T10:42:15;3.88;;;2.65;;
40871;SDS011;26591;43.264;26.940;2023-06-10T10:44:42;6.25;;;3.15;;
40871;SDS011;26591;43.264;26.940;2023-06-10T10:47:20;8.95;;;3.25;;
40871;SDS011;26591;43.264;26.940;2023-06-10T10:49:47;3.33;;;2.80;;
40871;SDS011;26591;43.264;26.940;2023-06-10T10:52:16;7.53;;;3.38;;
40871;SDS011;26591;43.264;26.940;2023-06-10T10:54:43;7.07;;;3.42;;
40871;SDS011;26591;43.264;26.940;2023-06-10T11:05:01;10.30;;;3.20;;
40871;SDS011;26591;43.264;26.940;2023-06-10T11:07:27;13.18;;;3.53;;
40871;SDS011;26591;43.264;26.940;2023-06-10T11:12:24;6.07;;;3.63;;
40871;SDS011;26591;43.264;26.940;2023-06-10T11:14:54;15.05;;;3.55;;
40871;SDS011;26591;43.264;26.940;2023-06-10T11:17:21;8.13;;;3.53;;
40871;SDS011;26591;43.264;26.940;2023-06-10T11:19:47;6.57;;;2.97;;
40871;SDS011;26591;43.264;26.940;2023-06-10T11:22:18;10.73;;;3.25;;
40871;SDS011;26591;43.264;26.940;2023-06-10T11:24:47;5.32;;;2.92;;
40871;SDS011;26591;43.264;26.940;2023-06-10T11:27:21;8.95;;;2.85;;
40871;SDS011;26591;43.264;26.940;2023-06-10T11:32:34;4.05;;;2.90;;
40871;SDS011;26591;43.264;26.940;2023-06-10T11:35:02;11.68;;;2.72;;
40871;SDS011;26591;43.264;26.940;2023-06-10T11:37:29;9.82;;;2.85;;
40871;SDS011;26591;43.264;26.940;2023-06-10T11:39:55;11.38;;;2.78;;
40871;SDS011;26591;43.264;26.940;2023-06-10T11:42:24;8.35;;;2.53;;
40871;SDS011;26591;43.264;26.940;2023-06-10T11:44:53;5.67;;;2.63;;
40871;SDS011;26591;43.264;26.940;2023-06-10T11:47:19;6.68;;;2.63;;
40871;SDS011;26591;43.264;26.940;2023-06-10T11:49:45;18.52;;;3.05;;
40871;SDS011;26591;43.264;26.940;2023-06-10T11:52:11;13.88;;;2.90;;
40871;SDS011;26591;43.264;26.940;2023-06-10T11:54:37;10.55;;;3.05;;
40871;SDS011;26591;43.264;26.940;2023-06-10T11:57:03;5.72;;;2.63;;
40871;SDS011;26591;43.264;26.940;2023-06-10T11:59:30;4.55;;;2.83;;
40871;SDS011;26591;43.264;26.940;2023-06-10T12:01:56;8.90;;;3.03;;
40871;SDS011;26591;43.264;26.940;2023-06-10T12:04:23;7.78;;;2.97;;
40871;SDS011;26591;43.264;26.940;2023-06-10T12:06:51;9.77;;;2.75;;
40871;SDS011;26591;43.264;26.940;2023-06-10T12:09:22;12.77;;;2.70;;
40871;SDS011;26591;43.264;26.940;2023-06-10T12:12:00;14.27;;;3.17;;
40871;SDS011;26591;43.264;26.940;2023-06-10T12:17:34;6.35;;;2.75;;
40871;SDS011;26591;43.264;26.940;2023-06-10T12:20:03;8.40;;;2.83;;
40871;SDS011;26591;43.264;26.940;2023-06-10T12:22:40;11.70;;;3.20;;
40871;SDS011;26591;43.264;26.940;2023-06-10T12:25:07;5.47;;;2.80;;
40871;SDS011;26591;43.264;26.940;2023-06-10T12:27:34;9.13;;;2.63;;
40871;SDS011;26591;43.264;26.940;2023-06-10T12:30:02;10.70;;;2.70;;
40871;SDS011;26591;43.264;26.940;2023-06-10T12:32:41;5.57;;;2.65;;
40871;SDS011;26591;43.264;26.940;2023-06-10T12:35:08;7.97;;;2.90;;
40871;SDS011;26591;43.264;26.940;2023-06-10T12:37:35;10.70;;;3.08;;
40871;SDS011;26591;43.264;26.940;2023-06-10T12:40:05;14.77;;;3.40;;
40871;SDS011;26591;43.264;26.940;2023-06-10T12:42:31;8.40;;;3.15;;
40871;SDS011;26591;43.264;26.940;2023-06-10T12:44:59;10.70;;;2.97;;
40871;SDS011;26591;43.264;26.940;2023-06-10T12:47:31;10.10;;;3.78;;
40871;SDS011;26591;43.264;26.940;2023-06-10T12:50:00;7.18;;;2.80;;
40871;SDS011;26591;43.264;26.940;2023-06-10T12:52:26;11.05;;;2.95;;
40871;SDS011;26591;43.264;26.940;2023-06-10T12:54:53;6.28;;;2.67;;
40871;SDS011;26591;43.264;26.940;2023-06-10T12:57:20;9.38;;;3.15;;
40871;SDS011;26591;43.264;26.940;2023-06-10T12:59:46;6.25;;;2.80;;
40871;SDS011;26591;43.264;26.940;2023-06-10T13:02:20;11.63;;;2.92;;
40871;SDS011;26591;43.264;26.940;2023-06-10T13:04:46;7.90;;;3.35;;
40871;SDS011;26591;43.264;26.940;2023-06-10T13:07:12;8.30;;;2.88;;
40871;SDS011;26591;43.264;26.940;2023-06-10T13:09:38;9.93;;;3.60;;
40871;SDS011;26591;43.264;26.940;2023-06-10T13:12:03;10.23;;;3.25;;
40871;SDS011;26591;43.264;26.940;2023-06-10T13:14:33;10.05;;;3.47;;
40871;SDS011;26591;43.264;26.940;2023-06-10T13:16:58;6.63;;;3.28;;
40871;SDS011;26591;43.264;26.940;2023-06-10T13:19:24;6.05;;;3.70;;
40871;SDS011;26591;43.264;26.940;2023-06-10T13:21:49;5.45;;;2.90;;
40871;SDS011;26591;43.264;26.940;2023-06-10T13:24:15;8.60;;;3.55;;
40871;SDS011;26591;43.264;26.940;2023-06-10T13:26:40;10.80;;;3.83;;
40871;SDS011;26591;43.264;26.940;2023-06-10T13:29:06;6.97;;;3.10;;
40871;SDS011;26591;43.264;26.940;2023-06-10T13:31:33;10.07;;;3.65;;
40871;SDS011;26591;43.264;26.940;2023-06-10T13:33:59;7.03;;;3.50;;
40871;SDS011;26591;43.264;26.940;2023-06-10T13:36:24;4.93;;;3.30;;
40871;SDS011;26591;43.264;26.940;2023-06-10T13:38:50;10.85;;;3.28;;
40871;SDS011;26591;43.264;26.940;2023-06-10T13:41:16;9.27;;;4.45;;
40871;SDS011;26591;43.264;26.940;2023-06-10T13:43:41;9.68;;;3.65;;
40871;SDS011;26591;43.264;26.940;2023-06-10T13:46:07;9.23;;;4.07;;
40871;SDS011;26591;43.264;26.940;2023-06-10T13:48:32;10.13;;;3.40;;
40871;SDS011;26591;43.264;26.940;2023-06-10T13:50:58;13.90;;;4.10;;
40871;SDS011;26591;43.264;26.940;2023-06-10T13:53:25;7.88;;;3.55;;
40871;SDS011;26591;43.264;26.940;2023-06-10T13:55:51;7.53;;;3.78;;
40871;SDS011;26591;43.264;26.940;2023-06-10T13:58:16;11.63;;;4.53;;
40871;SDS011;26591;43.264;26.940;2023-06-10T14:00:44;8.98;;;3.55;;
40871;SDS011;26591;43.264;26.940;2023-06-10T14:03:10;8.00;;;3.60;;
40871;SDS011;26591;43.264;26.940;2023-06-10T14:05:36;7.20;;;3.45;;
40871;SDS011;26591;43.264;26.940;2023-06-10T14:08:01;5.72;;;3.63;;
40871;SDS011;26591;43.264;26.940;2023-06-10T14:10:27;14.05;;;4.10;;
40871;SDS011;26591;43.264;26.940;2023-06-10T14:12:53;9.32;;;3.67;;
40871;SDS011;26591;43.264;26.940;2023-06-10T14:15:19;7.75;;;3.42;;
40871;SDS011;26591;43.264;26.940;2023-06-10T14:17:44;16.50;;;4.32;;
40871;SDS011;26591;43.264;26.940;2023-06-10T14:20:10;12.07;;;4.72;;
40871;SDS011;26591;43.264;26.940;2023-06-10T14:22:36;6.70;;;4.22;;
40871;SDS011;26591;43.264;26.940;2023-06-10T14:25:01;8.45;;;4.40;;
40871;SDS011;26591;43.264;26.940;2023-06-10T14:27:26;11.95;;;4.13;;
40871;SDS011;26591;43.264;26.940;2023-06-10T14:29:52;6.80;;;4.18;;
40871;SDS011;26591;43.264;26.940;2023-06-10T14:32:17;12.20;;;4.57;;
40871;SDS011;26591;43.264;26.940;2023-06-10T14:34:43;11.15;;;4.28;;
40871;SDS011;26591;43.264;26.940;2023-06-10T14:37:09;11.98;;;4.07;;
40871;SDS011;26591;43.264;26.940;2023-06-10T14:39:47;6.28;;;3.60;;
40871;SDS011;26591;43.264;26.940;2023-06-10T14:42:13;11.90;;;3.83;;
40871;SDS011;26591;43.264;26.940;2023-06-10T14:44:38;6.90;;;3.90;;
40871;SDS011;26591;43.264;26.940;2023-06-10T14:47:04;9.05;;;3.47;;
40871;SDS011;26591;43.264;26.940;2023-06-10T14:49:30;9.75;;;4.25;;
40871;SDS011;26591;43.264;26.940;2023-06-10T14:51:55;14.70;;;4.10;;
40871;SDS011;26591;43.264;26.940;2023-06-10T14:54:21;13.00;;;4.20;;
40871;SDS011;26591;43.264;26.940;2023-06-10T14:56:46;8.73;;;3.65;;
40871;SDS011;26591;43.264;26.940;2023-06-10T14:59:12;9.48;;;3.65;;
40871;SDS011;26591;43.264;26.940;2023-06-10T15:01:37;8.35;;;3.65;;
40871;SDS011;26591;43.264;26.940;2023-06-10T15:04:03;11.27;;;3.80;;